Главная страница
METAR-TAF:

METAR-TAF

Аэропорты :

Висбю, Готланд, Швеция

широта: 57-40N, долгота: 018-21E, высота над уровнем моря: 51 м

Текущие метеонаблюдения

Эта сводка был подготовлена 39 минут назад, в 06:20 UTC
Ветер 22 Узел от южный-юго-западный
Температура 8°C
Влажность 81%
Давление 1013 hPa
Видимость 10 км и более

METAR: ESSV 170620Z AUTO 21022KT 9999 BKN021/// 08/05 Q1013

Время: 07:59 (06:59 UTC)

Прогноз

Эта сводка был подготовлена 16 часа и 29 минут назад, в 14:30 UTC
Прогноз действительный с 16-го 15 UTC до 16-го 17 UTC
Ветер 15 Узел от восточно-юго-восточный
Видимость: 5000 м
Сплошная облачность на высоте 400 фута
небольшой дождь, Морось, дымка
временами
С 16-го 15 UTC до 16-го 17 UTC
Видимость: 2000 м
Рассеянная облачность на высоте 1000 фута
дождь

TAF: ESSV 161430Z 1615/1617 12015KT 5000 -RADZ BR OVC004 TEMPO 1615/1617 2000 RA BKN010

Метеонаблюдения и прогнозы для более 4000 аэропортов (сводки METAR и TAF).

Имеющиеся станции представлены на карте желтыми и красными точками.

Чтобы увидеть название станции, наведите на нее мышь.

Затем щелкните, чтобы увидеть метеонаблюдения и метеопрогнозы.

Управление картой: чтобы увеличить масштаб, щелкните зеленые кнопки с черным крестиком; чтобы уменьшить масштаб, щелкните зеленую кнопку с тире; для просмотра соседних карт щелкайте зеленые стрелки.


METAR-TAF: